createdAt,value
2019-03-17T00:00:45.629Z,11.40
2019-03-17T00:01:21.770Z,11.40
2019-03-17T00:01:57.762Z,11.40
2019-03-17T00:02:32.673Z,11.40
2019-03-17T00:03:07.165Z,11.40
2019-03-17T00:03:41.671Z,11.40
2019-03-17T00:04:16.261Z,11.30
2019-03-17T00:04:50.784Z,11.30
2019-03-17T00:05:25.275Z,11.30
2019-03-17T00:05:59.769Z,11.30
2019-03-17T00:06:34.324Z,11.30
2019-03-17T00:07:08.869Z,11.40
2019-03-17T00:07:43.524Z,11.30
2019-03-17T00:08:18.033Z,11.30
2019-03-17T00:08:52.594Z,11.30
2019-03-17T00:09:29.289Z,11.30
2019-03-17T00:10:04.261Z,11.30
2019-03-17T00:10:38.766Z,11.30
2019-03-17T00:11:13.275Z,11.30
2019-03-17T00:11:47.784Z,11.30
2019-03-17T00:12:22.289Z,11.30
2019-03-17T00:12:56.854Z,11.30
2019-03-17T00:13:31.355Z,11.30
2019-03-17T00:14:05.991Z,11.30
2019-03-17T00:14:40.488Z,11.30
2019-03-17T00:15:14.993Z,11.30
2019-03-17T00:15:49.656Z,11.20
2019-03-17T00:16:24.153Z,11.20
2019-03-17T00:16:58.993Z,11.20
2019-03-17T00:17:33.500Z,11.20
2019-03-17T00:18:08.313Z,11.20
2019-03-17T00:18:42.816Z,11.10
2019-03-17T00:19:17.324Z,11.10
2019-03-17T00:19:51.828Z,11.10
2019-03-17T00:20:26.424Z,11.10
2019-03-17T00:21:01.037Z,11.10
2019-03-17T00:21:35.784Z,11.00
2019-03-17T00:22:10.271Z,11.00
2019-03-17T00:22:44.779Z,11.00
2019-03-17T00:23:19.345Z,10.90
2019-03-17T00:23:54.120Z,10.90
2019-03-17T00:24:28.626Z,10.90
2019-03-17T00:25:09.106Z,10.80
2019-03-17T00:25:39.314Z,10.70
2019-03-17T00:26:13.945Z,10.70
2019-03-17T00:26:48.454Z,10.80
2019-03-17T00:27:22.960Z,10.70
2019-03-17T00:27:59.941Z,10.70
2019-03-17T00:28:34.440Z,10.70
2019-03-17T00:29:09.025Z,10.70
2019-03-17T00:29:43.568Z,10.70
2019-03-17T00:30:18.127Z,10.60
2019-03-17T00:30:52.702Z,10.70
2019-03-17T00:31:27.292Z,10.70
2019-03-17T00:32:01.862Z,10.70
2019-03-17T00:32:36.363Z,10.70
2019-03-17T00:33:10.891Z,10.70
2019-03-17T00:33:45.452Z,10.70
2019-03-17T00:34:19.955Z,10.70
2019-03-17T00:34:54.448Z,10.70
2019-03-17T00:35:33.005Z,10.70
2019-03-17T00:36:07.512Z,10.70
2019-03-17T00:36:42.008Z,10.70
2019-03-17T00:37:16.516Z,10.60
2019-03-17T00:37:51.097Z,10.60
2019-03-17T00:38:26.559Z,10.60
2019-03-17T00:39:01.095Z,10.60
2019-03-17T00:39:35.593Z,10.60
2019-03-17T00:40:11.322Z,10.50
2019-03-17T00:40:45.897Z,10.50
2019-03-17T00:41:20.498Z,10.50
2019-03-17T00:41:55.071Z,10.40
2019-03-17T00:42:29.709Z,10.40
2019-03-17T00:43:04.212Z,10.40
2019-03-17T00:43:38.775Z,10.40
2019-03-17T00:44:13.368Z,10.40
2019-03-17T00:44:47.903Z,10.40
2019-03-17T00:45:22.751Z,10.40
2019-03-17T00:45:57.263Z,10.30
2019-03-17T00:46:31.766Z,10.30
2019-03-17T00:47:06.342Z,10.30
2019-03-17T00:47:40.847Z,10.30
2019-03-17T00:48:15.440Z,10.30
2019-03-17T00:48:49.995Z,10.30
2019-03-17T00:49:24.488Z,10.30
2019-03-17T00:49:59.005Z,10.30
2019-03-17T00:50:33.543Z,10.30
2019-03-17T00:51:08.052Z,10.30
2019-03-17T00:51:42.575Z,10.30
2019-03-17T00:52:17.114Z,10.20
2019-03-17T00:52:51.689Z,10.20
2019-03-17T00:53:26.190Z,10.20
2019-03-17T00:54:01.222Z,10.10
2019-03-17T00:54:35.786Z,10.10
2019-03-17T00:55:10.740Z,10.10
2019-03-17T00:55:45.761Z,10.10
2019-03-17T00:56:20.372Z,10.10
2019-03-17T00:56:54.871Z,10.10
2019-03-17T00:57:29.415Z,10.10
2019-03-17T00:58:03.980Z,10.10
2019-03-17T00:58:38.487Z,10.10
2019-03-17T00:59:13.007Z,10.10
2019-03-17T00:59:47.677Z,10.10
2019-03-17T01:00:22.255Z,10.10
2019-03-17T01:01:04.576Z,10.00
2019-03-17T01:01:39.110Z,10.00
2019-03-17T01:02:13.600Z,10.00
2019-03-17T01:02:48.094Z,9.90
2019-03-17T01:03:22.598Z,10.00
2019-03-17T01:03:57.096Z,9.90
2019-03-17T01:04:31.893Z,9.90
2019-03-17T01:05:06.736Z,9.90
2019-03-17T01:05:41.371Z,9.90
2019-03-17T01:06:15.891Z,10.00
2019-03-17T01:06:50.457Z,10.00
2019-03-17T01:07:37.367Z,10.00
2019-03-17T01:08:11.988Z,10.00
2019-03-17T01:08:46.493Z,10.00
2019-03-17T01:09:21.000Z,10.00
2019-03-17T01:09:55.526Z,10.00
2019-03-17T01:10:30.129Z,10.00
2019-03-17T01:11:04.644Z,10.00
2019-03-17T01:11:39.149Z,10.00
2019-03-17T01:12:13.725Z,10.00
2019-03-17T01:12:48.463Z,10.00
2019-03-17T01:13:22.989Z,10.00
2019-03-17T01:13:57.472Z,10.00
2019-03-17T01:14:31.965Z,10.00
2019-03-17T01:15:07.618Z,9.90
2019-03-17T01:15:42.251Z,9.90
2019-03-17T01:16:16.777Z,9.90
2019-03-17T01:16:51.300Z,9.90
2019-03-17T01:17:25.860Z,9.90
2019-03-17T01:18:00.391Z,9.90
2019-03-17T01:18:34.881Z,9.90
2019-03-17T01:19:09.416Z,9.80
2019-03-17T01:19:43.924Z,9.80
2019-03-17T01:20:18.484Z,9.80
2019-03-17T01:20:52.984Z,9.80
2019-03-17T01:21:27.460Z,9.70
2019-03-17T01:22:02.016Z,9.80
2019-03-17T01:22:36.581Z,9.80
2019-03-17T01:23:11.086Z,9.70
2019-03-17T01:23:45.981Z,9.80
2019-03-17T01:24:20.989Z,9.70
2019-03-17T01:24:55.524Z,9.80
2019-03-17T01:25:30.015Z,9.80
2019-03-17T01:26:04.577Z,9.80
2019-03-17T01:26:39.065Z,9.80
2019-03-17T01:27:13.554Z,9.80
2019-03-17T01:27:48.126Z,9.80
2019-03-17T01:28:22.687Z,9.80
2019-03-17T01:28:57.466Z,9.80
2019-03-17T01:29:31.961Z,9.80
2019-03-17T01:30:09.633Z,9.90
2019-03-17T01:30:44.156Z,9.90
2019-03-17T01:31:18.644Z,9.90
2019-03-17T01:31:53.139Z,9.90
2019-03-17T01:32:28.105Z,9.80
2019-03-17T01:33:02.619Z,9.80
2019-03-17T01:33:37.196Z,9.80
2019-03-17T01:34:11.703Z,9.80
2019-03-17T01:34:46.270Z,9.70
2019-03-17T01:35:20.817Z,9.70
2019-03-17T01:35:55.406Z,9.70
2019-03-17T01:36:29.925Z,9.70
2019-03-17T01:37:04.491Z,9.70
2019-03-17T01:37:39.012Z,9.80
2019-03-17T01:38:13.616Z,9.70
2019-03-17T01:38:48.417Z,9.70
2019-03-17T01:39:22.989Z,9.70
2019-03-17T01:39:57.472Z,9.70
2019-03-17T01:40:31.975Z,9.70
2019-03-17T01:41:06.544Z,9.70
2019-03-17T01:41:41.037Z,9.70
2019-03-17T01:42:18.314Z,9.70
2019-03-17T01:42:51.746Z,9.70
2019-03-17T01:43:26.265Z,9.70
2019-03-17T01:44:00.830Z,9.60
2019-03-17T01:44:35.410Z,9.70
2019-03-17T01:45:10.584Z,9.70
2019-03-17T01:45:45.133Z,9.60
2019-03-17T01:46:19.707Z,9.60
2019-03-17T01:46:54.209Z,9.60
2019-03-17T01:47:28.790Z,9.60
2019-03-17T01:48:03.309Z,9.60
2019-03-17T01:48:37.880Z,9.60
2019-03-17T01:49:12.365Z,9.60
2019-03-17T01:49:46.938Z,9.60
2019-03-17T01:50:21.533Z,9.60
2019-03-17T01:50:56.192Z,9.60
2019-03-17T01:51:30.733Z,9.50
2019-03-17T01:52:05.289Z,9.50
2019-03-17T01:52:39.834Z,9.60
2019-03-17T01:53:14.338Z,9.50
2019-03-17T01:53:48.900Z,9.50
2019-03-17T01:54:23.477Z,9.50
2019-03-17T01:54:58.010Z,9.60
2019-03-17T01:55:32.623Z,9.60
2019-03-17T01:56:07.267Z,9.60
2019-03-17T01:56:41.749Z,9.60
2019-03-17T01:57:16.249Z,9.50
2019-03-17T01:57:50.860Z,9.50
2019-03-17T01:58:25.466Z,9.50
2019-03-17T01:59:00.059Z,9.50
2019-03-17T01:59:34.626Z,9.50
2019-03-17T02:00:13.607Z,9.50
2019-03-17T02:00:48.089Z,9.50
2019-03-17T02:01:22.590Z,9.50
2019-03-17T02:01:57.091Z,9.50
2019-03-17T02:02:31.676Z,9.50
2019-03-17T02:03:06.259Z,9.50
2019-03-17T02:03:40.842Z,9.50
2019-03-17T02:04:15.340Z,9.50
2019-03-17T02:04:49.902Z,9.40
2019-03-17T02:05:24.414Z,9.50
2019-03-17T02:05:58.979Z,9.50
2019-03-17T02:06:33.475Z,9.50
2019-03-17T02:07:07.983Z,9.50
2019-03-17T02:07:42.629Z,9.40
2019-03-17T02:08:17.217Z,9.40
2019-03-17T02:08:51.718Z,9.40
2019-03-17T02:09:26.283Z,9.40
2019-03-17T02:10:00.838Z,9.40
2019-03-17T02:10:35.640Z,9.40
2019-03-17T02:11:10.141Z,9.40
2019-03-17T02:11:44.694Z,9.40
2019-03-17T02:12:19.279Z,9.40
2019-03-17T02:12:53.924Z,9.40
2019-03-17T02:13:28.407Z,9.40
2019-03-17T02:14:02.900Z,9.40
2019-03-17T02:14:37.400Z,9.30
2019-03-17T02:15:11.904Z,9.30
2019-03-17T02:15:46.390Z,9.30
2019-03-17T02:16:20.890Z,9.30
2019-03-17T02:16:55.368Z,9.30
2019-03-17T02:17:29.868Z,9.30
2019-03-17T02:18:04.453Z,9.30
2019-03-17T02:18:38.944Z,9.30
2019-03-17T02:19:13.497Z,9.20
2019-03-17T02:19:47.988Z,9.20
2019-03-17T02:20:22.825Z,9.20
2019-03-17T02:20:57.449Z,9.20
2019-03-17T02:21:31.938Z,9.20
2019-03-17T02:22:06.423Z,9.20
2019-03-17T02:22:40.916Z,9.30
2019-03-17T02:23:15.413Z,9.30
2019-03-17T02:23:49.995Z,9.20
2019-03-17T02:24:24.531Z,9.20
2019-03-17T02:24:59.093Z,9.20
2019-03-17T02:25:33.608Z,9.20
2019-03-17T02:26:08.086Z,9.20
2019-03-17T02:26:42.754Z,9.20
2019-03-17T02:27:17.317Z,9.10
2019-03-17T02:27:51.807Z,9.20
2019-03-17T02:28:26.385Z,9.10
2019-03-17T02:29:00.945Z,9.10
2019-03-17T02:29:35.431Z,9.10
2019-03-17T02:30:14.319Z,9.10
2019-03-17T02:30:49.265Z,9.10
2019-03-17T02:31:23.769Z,9.10
2019-03-17T02:31:58.369Z,9.00
2019-03-17T02:32:33.049Z,9.00
2019-03-17T02:33:07.634Z,9.00
2019-03-17T02:33:42.141Z,9.00
2019-03-17T02:34:16.710Z,8.90
2019-03-17T02:34:51.202Z,8.90
2019-03-17T02:35:38.041Z,8.90
2019-03-17T02:36:01.962Z,8.90
2019-03-17T02:36:36.449Z,8.90
2019-03-17T02:37:10.945Z,8.80
2019-03-17T02:37:46.818Z,8.90
2019-03-17T02:38:21.317Z,8.80
2019-03-17T02:38:56.249Z,8.80
2019-03-17T02:39:30.741Z,8.80
2019-03-17T02:40:07.176Z,8.80
2019-03-17T02:40:41.869Z,8.80
2019-03-17T02:41:16.465Z,8.80
2019-03-17T02:41:51.026Z,8.80
2019-03-17T02:42:25.614Z,8.70
2019-03-17T02:43:00.114Z,8.80
2019-03-17T02:43:34.609Z,8.80
2019-03-17T02:44:09.095Z,8.80
2019-03-17T02:44:43.610Z,8.80
2019-03-17T02:45:18.157Z,8.80
2019-03-17T02:45:52.646Z,8.80
2019-03-17T02:46:27.615Z,8.80
2019-03-17T02:47:02.174Z,8.80
2019-03-17T02:47:37.054Z,8.70
2019-03-17T02:48:11.685Z,8.70
2019-03-17T02:48:46.238Z,8.70
2019-03-17T02:49:20.814Z,8.80
2019-03-17T02:49:55.367Z,8.80
2019-03-17T02:50:29.916Z,8.70
2019-03-17T02:51:04.404Z,8.70
2019-03-17T02:51:38.893Z,8.70
2019-03-17T02:52:13.384Z,8.70
2019-03-17T02:52:47.879Z,8.70
2019-03-17T02:53:22.690Z,8.70
2019-03-17T02:53:57.234Z,8.70
2019-03-17T02:54:31.781Z,8.70
2019-03-17T02:55:08.029Z,8.70
2019-03-17T02:55:42.582Z,8.70
2019-03-17T02:56:17.160Z,8.70
2019-03-17T02:56:52.043Z,8.70
2019-03-17T02:57:27.509Z,8.60
2019-03-17T02:58:02.094Z,8.70
2019-03-17T02:58:36.584Z,8.70
2019-03-17T02:59:11.057Z,8.70
2019-03-17T02:59:45.552Z,8.60
2019-03-17T03:00:20.289Z,8.60
2019-03-17T03:00:54.793Z,8.60
2019-03-17T03:01:29.354Z,8.60
2019-03-17T03:02:04.614Z,8.60
2019-03-17T03:02:39.201Z,8.60
2019-03-17T03:03:13.770Z,8.70
2019-03-17T03:03:48.271Z,8.60
2019-03-17T03:04:22.824Z,8.70
2019-03-17T03:04:57.426Z,8.70
2019-03-17T03:05:31.998Z,8.70
2019-03-17T03:06:06.578Z,8.70
2019-03-17T03:06:41.079Z,8.70
2019-03-17T03:07:15.581Z,8.70
2019-03-17T03:07:50.069Z,8.70
2019-03-17T03:08:24.743Z,8.70
2019-03-17T03:08:59.338Z,8.70
2019-03-17T03:09:33.898Z,8.70
2019-03-17T03:10:09.037Z,8.70
2019-03-17T03:10:43.582Z,8.70
2019-03-17T03:11:18.133Z,8.60
2019-03-17T03:11:52.701Z,8.60
2019-03-17T03:12:27.218Z,8.60
2019-03-17T03:13:01.701Z,8.60
2019-03-17T03:13:36.226Z,8.60
2019-03-17T03:14:10.729Z,8.60
2019-03-17T03:14:45.224Z,8.60
2019-03-17T03:15:20.113Z,8.60
2019-03-17T03:15:54.676Z,8.60
2019-03-17T03:16:29.251Z,8.60
2019-03-17T03:17:03.789Z,8.60
2019-03-17T03:17:38.299Z,8.60
2019-03-17T03:18:12.914Z,8.60
2019-03-17T03:18:47.400Z,8.60
2019-03-17T03:19:22.064Z,8.60
2019-03-17T03:19:56.682Z,8.60
2019-03-17T03:20:31.194Z,8.60
2019-03-17T03:21:05.755Z,8.60
2019-03-17T03:21:40.313Z,8.60
2019-03-17T03:22:14.801Z,8.50
2019-03-17T03:22:49.292Z,8.50
2019-03-17T03:23:24.106Z,8.50
2019-03-17T03:23:58.660Z,8.40
2019-03-17T03:24:33.149Z,8.40
2019-03-17T03:25:09.022Z,8.40
2019-03-17T03:25:43.559Z,8.40
2019-03-17T03:26:18.144Z,8.40
2019-03-17T03:26:52.808Z,8.40
2019-03-17T03:27:27.305Z,8.30
2019-03-17T03:28:01.800Z,8.30
2019-03-17T03:28:36.325Z,8.40
2019-03-17T03:29:10.966Z,8.40
2019-03-17T03:29:45.547Z,8.30
2019-03-17T03:30:20.080Z,8.30
2019-03-17T03:30:54.727Z,8.20
2019-03-17T03:31:29.314Z,8.20
2019-03-17T03:32:03.902Z,8.20
2019-03-17T03:32:38.415Z,8.20
2019-03-17T03:33:12.976Z,8.20
2019-03-17T03:33:47.457Z,8.20
2019-03-17T03:34:21.946Z,8.20
2019-03-17T03:34:56.436Z,8.20
2019-03-17T03:35:31.447Z,8.20
2019-03-17T03:36:11.493Z,8.20
2019-03-17T03:36:42.203Z,8.20
2019-03-17T03:37:16.693Z,8.20
2019-03-17T03:37:51.184Z,8.20
2019-03-17T03:38:25.684Z,8.20
2019-03-17T03:39:00.190Z,8.20
2019-03-17T03:39:34.749Z,8.20
2019-03-17T03:40:12.169Z,8.20
2019-03-17T03:40:46.661Z,8.20
2019-03-17T03:41:21.201Z,8.20
2019-03-17T03:41:56.011Z,8.20
2019-03-17T03:42:30.511Z,8.20
2019-03-17T03:43:05.659Z,8.20
2019-03-17T03:43:40.222Z,8.10
2019-03-17T03:44:14.755Z,8.10
2019-03-17T03:44:49.332Z,8.10
2019-03-17T03:45:23.825Z,8.10
2019-03-17T03:45:58.388Z,8.20
2019-03-17T03:46:32.950Z,8.20
2019-03-17T03:47:07.463Z,8.20
2019-03-17T03:47:41.960Z,8.10
2019-03-17T03:48:17.293Z,8.20
2019-03-17T03:48:51.864Z,8.10
2019-03-17T03:49:26.459Z,8.10
2019-03-17T03:50:01.008Z,8.10
2019-03-17T03:50:35.568Z,8.00
2019-03-17T03:51:10.460Z,8.10
2019-03-17T03:51:45.220Z,8.10
2019-03-17T03:52:19.712Z,8.10
2019-03-17T03:52:54.339Z,8.10
2019-03-17T03:53:28.992Z,8.10
2019-03-17T03:54:03.478Z,8.10
2019-03-17T03:54:38.133Z,8.10
2019-03-17T03:55:12.622Z,8.10
2019-03-17T03:55:47.110Z,8.10
2019-03-17T03:56:21.683Z,8.10
2019-03-17T03:56:56.267Z,8.10
2019-03-17T03:57:30.809Z,8.00
2019-03-17T03:58:05.394Z,8.10
2019-03-17T03:58:39.949Z,8.10
2019-03-17T03:59:14.445Z,8.10
2019-03-17T03:59:49.008Z,8.10
2019-03-17T04:00:23.638Z,8.10
2019-03-17T04:00:58.197Z,8.10
2019-03-17T04:01:32.805Z,8.10
2019-03-17T04:02:07.299Z,8.10
2019-03-17T04:02:41.805Z,8.10
2019-03-17T04:03:16.307Z,8.10
2019-03-17T04:03:50.820Z,8.10
2019-03-17T04:04:25.397Z,8.00
2019-03-17T04:04:59.953Z,8.00
2019-03-17T04:05:34.522Z,8.00
2019-03-17T04:06:09.094Z,8.00
2019-03-17T04:06:43.602Z,8.00
2019-03-17T04:07:18.210Z,8.00
2019-03-17T04:07:52.693Z,7.90
2019-03-17T04:08:27.199Z,7.90
2019-03-17T04:09:01.769Z,7.90
2019-03-17T04:09:36.331Z,8.00
2019-03-17T04:10:11.336Z,7.90
2019-03-17T04:10:45.906Z,7.90
2019-03-17T04:11:20.587Z,7.90
2019-03-17T04:11:55.185Z,8.00
2019-03-17T04:12:29.801Z,7.90
2019-03-17T04:13:04.431Z,8.00
2019-03-17T04:13:38.922Z,7.90
2019-03-17T04:14:13.525Z,8.00
2019-03-17T04:14:48.109Z,8.00
2019-03-17T04:15:22.696Z,8.00
2019-03-17T04:15:57.205Z,8.00
2019-03-17T04:16:31.789Z,8.00
2019-03-17T04:17:06.373Z,7.90
2019-03-17T04:17:41.033Z,7.90
2019-03-17T04:18:15.555Z,8.00
2019-03-17T04:18:50.217Z,8.00
2019-03-17T04:19:24.826Z,8.00
2019-03-17T04:19:59.461Z,8.00
2019-03-17T04:20:34.068Z,8.00
2019-03-17T04:21:08.565Z,8.00
2019-03-17T04:21:43.126Z,8.00
2019-03-17T04:22:17.627Z,8.00
2019-03-17T04:22:52.181Z,8.00
2019-03-17T04:23:26.678Z,8.00
2019-03-17T04:24:01.233Z,8.00
2019-03-17T04:24:35.809Z,8.00
2019-03-17T04:25:12.356Z,8.00
2019-03-17T04:25:46.905Z,8.00
2019-03-17T04:26:21.416Z,8.00
2019-03-17T04:26:55.903Z,8.00
2019-03-17T04:27:30.503Z,7.90
2019-03-17T04:28:05.138Z,7.90
2019-03-17T04:28:39.721Z,7.90
2019-03-17T04:29:14.299Z,7.90
2019-03-17T04:29:48.850Z,7.90
2019-03-17T04:30:23.379Z,8.00
2019-03-17T04:30:57.982Z,7.90
2019-03-17T04:31:32.562Z,7.90
2019-03-17T04:32:07.154Z,7.90
2019-03-17T04:32:41.660Z,7.90
2019-03-17T04:33:16.225Z,7.90
2019-03-17T04:33:50.712Z,8.00
2019-03-17T04:34:25.288Z,7.90
2019-03-17T04:35:08.423Z,7.90
2019-03-17T04:35:43.010Z,7.90
2019-03-17T04:36:17.567Z,7.90
2019-03-17T04:36:52.062Z,7.90
2019-03-17T04:37:26.571Z,7.90
2019-03-17T04:38:01.069Z,7.90
2019-03-17T04:38:35.568Z,7.90
2019-03-17T04:39:10.062Z,7.90
2019-03-17T04:39:44.625Z,7.90
2019-03-17T04:40:19.119Z,7.90
2019-03-17T04:40:53.687Z,7.90
2019-03-17T04:41:28.237Z,7.90
2019-03-17T04:42:02.736Z,7.80
2019-03-17T04:42:38.241Z,7.80
2019-03-17T04:43:12.726Z,7.80
2019-03-17T04:43:47.220Z,7.80
2019-03-17T04:44:21.716Z,7.80
2019-03-17T04:44:56.219Z,7.80
2019-03-17T04:45:30.785Z,7.80
2019-03-17T04:46:05.273Z,7.80
2019-03-17T04:46:39.757Z,7.80
2019-03-17T04:47:33.870Z,7.80
2019-03-17T04:48:10.723Z,7.80
2019-03-17T04:48:45.363Z,7.80
2019-03-17T04:49:19.975Z,7.70
2019-03-17T04:49:54.485Z,7.70
2019-03-17T04:50:29.246Z,7.70
2019-03-17T04:51:03.873Z,7.70
2019-03-17T04:51:38.468Z,7.70
2019-03-17T04:52:12.975Z,7.70
2019-03-17T04:52:47.576Z,7.60
2019-03-17T04:53:22.162Z,7.60
2019-03-17T04:53:56.730Z,7.60
2019-03-17T04:54:31.238Z,7.70
2019-03-17T04:55:07.170Z,7.60
2019-03-17T04:55:41.716Z,7.70
2019-03-17T04:56:16.217Z,7.60
2019-03-17T04:56:50.700Z,7.70
2019-03-17T04:57:25.195Z,7.70
2019-03-17T04:57:59.707Z,7.70
2019-03-17T04:58:34.202Z,7.60
2019-03-17T04:59:08.776Z,7.60
2019-03-17T04:59:43.281Z,7.70
2019-03-17T05:00:18.137Z,7.70
2019-03-17T05:00:52.738Z,7.70
2019-03-17T05:01:27.245Z,7.70
2019-03-17T05:02:01.738Z,7.70
2019-03-17T05:02:36.240Z,7.70
2019-03-17T05:03:10.793Z,7.70
2019-03-17T05:03:45.288Z,7.80
2019-03-17T05:04:19.793Z,7.80
2019-03-17T05:04:54.368Z,7.80
2019-03-17T05:05:29.223Z,7.80
2019-03-17T05:06:03.798Z,7.90
2019-03-17T05:06:38.361Z,7.90
2019-03-17T05:07:12.885Z,7.90
2019-03-17T05:07:47.438Z,7.90
2019-03-17T05:08:21.933Z,7.90
2019-03-17T05:08:56.432Z,7.90
2019-03-17T05:09:30.932Z,7.90
2019-03-17T05:10:07.613Z,7.90
2019-03-17T05:10:42.096Z,8.00
2019-03-17T05:11:16.610Z,7.90
2019-03-17T05:11:51.182Z,8.00
2019-03-17T05:12:25.694Z,8.00
2019-03-17T05:13:00.250Z,8.00
2019-03-17T05:13:34.840Z,8.00
2019-03-17T05:14:09.601Z,8.00
2019-03-17T05:14:44.131Z,8.00
2019-03-17T05:15:18.627Z,8.00
2019-03-17T05:15:53.147Z,8.00
2019-03-17T05:16:27.706Z,8.10
2019-03-17T05:17:02.261Z,8.00
2019-03-17T05:17:36.748Z,8.00
2019-03-17T05:18:11.325Z,8.10
2019-03-17T05:18:46.198Z,8.10
2019-03-17T05:19:20.753Z,8.10
2019-03-17T05:19:55.258Z,8.10
2019-03-17T05:20:29.794Z,8.10
2019-03-17T05:21:04.303Z,8.10
2019-03-17T05:21:38.878Z,8.10
2019-03-17T05:22:13.437Z,8.10
2019-03-17T05:22:47.908Z,8.10
2019-03-17T05:23:22.525Z,8.10
2019-03-17T05:23:57.014Z,8.10
2019-03-17T05:24:31.506Z,8.10
2019-03-17T05:25:07.053Z,8.10
2019-03-17T05:25:41.616Z,8.10
2019-03-17T05:26:16.125Z,8.20
2019-03-17T05:26:50.649Z,8.10
2019-03-17T05:27:25.147Z,8.10
2019-03-17T05:27:59.650Z,8.10
2019-03-17T05:28:34.140Z,8.10
2019-03-17T05:29:08.639Z,8.10
2019-03-17T05:29:43.124Z,8.20
2019-03-17T05:30:17.681Z,8.20
2019-03-17T05:30:52.178Z,8.20
2019-03-17T05:31:26.745Z,8.20
2019-03-17T05:32:01.300Z,8.20
2019-03-17T05:32:35.792Z,8.20
2019-03-17T05:33:10.335Z,8.20
2019-03-17T05:33:44.854Z,8.20
2019-03-17T05:34:19.429Z,8.20
2019-03-17T05:34:53.920Z,8.20
2019-03-17T05:35:28.429Z,8.20
2019-03-17T05:36:02.954Z,8.20
2019-03-17T05:36:37.447Z,8.30
2019-03-17T05:37:11.948Z,8.30
2019-03-17T05:37:46.508Z,8.20
2019-03-17T05:38:21.148Z,8.30
2019-03-17T05:38:55.629Z,8.30
2019-03-17T05:39:30.189Z,8.30
2019-03-17T05:40:07.199Z,8.30
2019-03-17T05:40:41.758Z,8.30
2019-03-17T05:41:16.335Z,8.30
2019-03-17T05:41:50.836Z,8.30
2019-03-17T05:42:25.397Z,8.30
2019-03-17T05:42:59.890Z,8.30
2019-03-17T05:43:34.456Z,8.30
2019-03-17T05:44:08.950Z,8.30
2019-03-17T05:44:43.520Z,8.40
2019-03-17T05:45:18.027Z,8.40
2019-03-17T05:45:52.572Z,8.40
2019-03-17T05:46:27.068Z,8.40
2019-03-17T05:47:01.617Z,8.40
2019-03-17T05:47:36.116Z,8.40
2019-03-17T05:48:10.628Z,8.40
2019-03-17T05:48:45.255Z,8.40
2019-03-17T05:49:19.782Z,8.40
2019-03-17T05:49:54.624Z,8.40
2019-03-17T05:50:29.134Z,8.30
2019-03-17T05:51:03.678Z,8.40
2019-03-17T05:51:38.168Z,8.40
2019-03-17T05:52:12.689Z,8.40
2019-03-17T05:52:47.170Z,8.40
2019-03-17T05:53:21.659Z,8.40
2019-03-17T05:53:56.223Z,8.50
2019-03-17T05:54:30.790Z,8.40
2019-03-17T05:55:07.834Z,8.50
2019-03-17T05:55:42.352Z,8.40
2019-03-17T05:56:16.916Z,8.40
2019-03-17T05:56:51.538Z,8.50
2019-03-17T05:57:26.038Z,8.50
2019-03-17T05:58:00.550Z,8.50
2019-03-17T05:58:35.160Z,8.50
2019-03-17T05:59:09.903Z,8.50
2019-03-17T05:59:44.452Z,8.60
2019-03-17T06:00:19.340Z,8.60
2019-03-17T06:00:53.963Z,8.60
2019-03-17T06:01:28.473Z,8.60
2019-03-17T06:02:02.996Z,8.60
2019-03-17T06:02:37.544Z,8.60
2019-03-17T06:03:12.101Z,8.60
2019-03-17T06:03:46.612Z,8.70
2019-03-17T06:04:21.174Z,8.70
2019-03-17T06:04:55.725Z,8.80
2019-03-17T06:05:30.211Z,8.80
2019-03-17T06:06:04.881Z,8.80
2019-03-17T06:06:39.525Z,8.80
2019-03-17T06:07:18.936Z,8.80
2019-03-17T06:07:50.261Z,8.90
2019-03-17T06:08:24.774Z,8.90
2019-03-17T06:08:59.397Z,8.90
2019-03-17T06:09:33.901Z,9.00
2019-03-17T06:10:09.033Z,9.00
2019-03-17T06:10:43.671Z,9.00
2019-03-17T06:11:18.169Z,9.10
2019-03-17T06:11:52.652Z,9.10
2019-03-17T06:12:27.158Z,9.20
2019-03-17T06:13:01.693Z,9.20
2019-03-17T06:13:36.272Z,9.30
2019-03-17T06:14:10.755Z,9.30
2019-03-17T06:14:45.346Z,9.40
2019-03-17T06:15:19.900Z,9.40
2019-03-17T06:15:54.459Z,9.50
2019-03-17T06:16:28.948Z,9.50
2019-03-17T06:17:03.467Z,9.60
2019-03-17T06:17:37.978Z,9.50
2019-03-17T06:18:12.523Z,9.60
2019-03-17T06:18:48.013Z,9.60
2019-03-17T06:19:22.512Z,9.70
2019-03-17T06:19:56.995Z,9.70
2019-03-17T06:20:31.801Z,9.70
2019-03-17T06:21:06.632Z,9.70
2019-03-17T06:21:41.191Z,9.70
2019-03-17T06:22:15.680Z,9.80
2019-03-17T06:22:50.174Z,9.80
2019-03-17T06:23:24.676Z,9.90
2019-03-17T06:23:59.313Z,9.90
2019-03-17T06:24:33.886Z,9.90
2019-03-17T06:25:09.422Z,10.00
2019-03-17T06:25:44.015Z,10.10
2019-03-17T06:26:18.570Z,10.20
2019-03-17T06:26:53.075Z,10.20
2019-03-17T06:27:27.584Z,10.10
2019-03-17T06:28:02.120Z,10.20
2019-03-17T06:28:36.684Z,10.20
2019-03-17T06:29:11.182Z,10.30
2019-03-17T06:29:45.727Z,10.30
2019-03-17T06:30:21.208Z,10.30
2019-03-17T06:30:55.721Z,10.40
2019-03-17T06:31:30.214Z,10.40
2019-03-17T06:32:04.886Z,10.50
2019-03-17T06:32:39.502Z,10.50
2019-03-17T06:33:13.998Z,10.60
2019-03-17T06:33:48.497Z,10.60
2019-03-17T06:34:24.352Z,10.70
2019-03-17T06:34:59.095Z,10.70
2019-03-17T06:35:33.689Z,10.70
2019-03-17T06:36:08.232Z,10.80
2019-03-17T06:36:42.800Z,10.80
2019-03-17T06:37:17.300Z,10.90
2019-03-17T06:37:51.833Z,10.90
2019-03-17T06:38:26.382Z,11.00
2019-03-17T06:39:00.929Z,11.00
2019-03-17T06:39:35.657Z,11.00
2019-03-17T06:40:16.113Z,11.10
2019-03-17T06:40:50.643Z,11.20
2019-03-17T06:41:25.161Z,11.20
2019-03-17T06:41:59.731Z,11.20
2019-03-17T06:42:34.364Z,11.30
2019-03-17T06:43:08.976Z,11.40
2019-03-17T06:43:43.477Z,11.40
2019-03-17T06:44:17.961Z,11.50
2019-03-17T06:44:52.479Z,11.50
2019-03-17T06:45:27.065Z,11.60
2019-03-17T06:46:01.562Z,11.60
2019-03-17T06:46:36.128Z,11.70
2019-03-17T06:47:10.691Z,11.70
2019-03-17T06:47:45.257Z,11.80
2019-03-17T06:48:19.749Z,11.70
2019-03-17T06:48:54.324Z,11.80
2019-03-17T06:49:28.817Z,11.90
2019-03-17T06:50:05.457Z,11.90
2019-03-17T06:50:40.033Z,11.90
2019-03-17T06:51:14.626Z,11.90
2019-03-17T06:51:49.127Z,12.00
2019-03-17T06:52:23.642Z,12.00
2019-03-17T06:52:58.138Z,12.00
2019-03-17T06:53:32.936Z,12.00
2019-03-17T06:54:07.486Z,12.00
2019-03-17T06:54:42.048Z,12.10
2019-03-17T06:55:18.378Z,12.10
2019-03-17T06:55:52.936Z,12.20
2019-03-17T06:56:27.457Z,12.20
2019-03-17T06:57:02.037Z,12.30
2019-03-17T06:57:36.880Z,12.30
2019-03-17T06:58:11.375Z,12.30
2019-03-17T06:58:45.868Z,12.30
2019-03-17T06:59:20.362Z,12.30
2019-03-17T06:59:54.863Z,12.30
2019-03-17T07:00:29.467Z,12.30
2019-03-17T07:01:04.128Z,12.20
2019-03-17T07:01:38.630Z,12.20
2019-03-17T07:02:13.151Z,12.20
2019-03-17T07:02:47.720Z,12.20
2019-03-17T07:03:22.254Z,12.20
2019-03-17T07:03:56.859Z,12.20
2019-03-17T07:04:31.358Z,12.20
2019-03-17T07:05:07.693Z,12.20
2019-03-17T07:05:42.190Z,12.10
2019-03-17T07:06:16.714Z,12.10
2019-03-17T07:06:51.268Z,12.10
2019-03-17T07:07:25.772Z,12.10
2019-03-17T07:08:19.631Z,12.10
2019-03-17T07:08:54.214Z,12.10
2019-03-17T07:09:28.788Z,12.10
2019-03-17T07:10:04.357Z,12.10
2019-03-17T07:10:40.140Z,12.10
2019-03-17T07:11:14.636Z,12.20
2019-03-17T07:11:49.235Z,12.20
2019-03-17T07:12:23.797Z,12.20
2019-03-17T07:12:58.371Z,12.20
2019-03-17T07:13:32.950Z,12.10
2019-03-17T07:14:07.464Z,12.10
2019-03-17T07:14:42.038Z,12.10
2019-03-17T07:15:16.545Z,12.10
2019-03-17T07:15:51.111Z,12.00
2019-03-17T07:16:25.609Z,12.10
2019-03-17T07:17:00.444Z,12.00
2019-03-17T07:17:35.000Z,12.00
2019-03-17T07:18:09.525Z,12.00
2019-03-17T07:18:44.144Z,12.00
2019-03-17T07:19:18.743Z,12.00
2019-03-17T07:19:53.281Z,12.00
2019-03-17T07:20:27.776Z,12.00
2019-03-17T07:21:02.337Z,12.00
2019-03-17T07:21:36.891Z,12.00
2019-03-17T07:22:11.389Z,12.10
2019-03-17T07:22:45.922Z,12.10
2019-03-17T07:23:20.514Z,12.10
2019-03-17T07:23:55.149Z,12.10
2019-03-17T07:24:29.647Z,12.10
2019-03-17T07:25:05.615Z,12.10
2019-03-17T07:25:40.138Z,12.10
2019-03-17T07:26:14.715Z,12.10
2019-03-17T07:26:49.220Z,12.10
2019-03-17T07:27:23.724Z,12.10
2019-03-17T07:27:58.232Z,12.00
2019-03-17T07:28:32.860Z,12.00
2019-03-17T07:29:07.421Z,12.00
2019-03-17T07:29:41.906Z,12.00
2019-03-17T07:30:18.258Z,12.00
2019-03-17T07:30:52.761Z,12.00
2019-03-17T07:31:27.274Z,12.00
2019-03-17T07:32:01.840Z,12.00
2019-03-17T07:32:36.356Z,12.00
2019-03-17T07:33:10.946Z,12.00
2019-03-17T07:33:45.553Z,12.00
2019-03-17T07:34:20.112Z,12.10
2019-03-17T07:34:54.677Z,12.10
2019-03-17T07:35:29.210Z,12.10
2019-03-17T07:36:03.729Z,12.10
2019-03-17T07:36:38.332Z,12.10
2019-03-17T07:37:12.850Z,12.10
2019-03-17T07:37:56.826Z,12.10
2019-03-17T07:38:23.636Z,12.20